KGEY/GEY METAR and TAF weather

Enter ICAO airport designator
Station Type Date Time Source
KGEY METAR 2021/05/14 03:53 UTC NOAA

KGEY 140353Z AUTO 34009KT 10SM CLR 16/02 A3008 RMK AO2 SLP169 T01560017


Station Type Date Time Source
KGEY Decoded METAR 2021/05/14 03:53 UTC NOAA

SOUTH BIG HORN COUNTY AIRPORT , WY, United States (KGEY) 44-31N 108-05W 1191M
May 13, 2021 - 11:53 PM EDT / 2021.05.14 0353 UTC
Wind: from the NNW (340 degrees) at 10 MPH (9 KT):0
Visibility: 10 mile(s):0
Sky conditions: clear
Temperature: 60.1 F (15.6 C)
Dew Point: 35.1 F (1.7 C)
Relative Humidity: 38%
Pressure (altimeter): 30.08 in. Hg (1018 hPa)
ob: KGEY 140353Z AUTO 34009KT 10SM CLR 16/02 A3008 RMK AO2 SLP169 T01560017
cycle: 4

Station Type Date Time Source
KGEY TAF UTC NOAA

Error!

Example: see airport list